sensor_id;sensor_type;location;lat;lon;timestamp;P1;durP1;ratioP1;P2;durP2;ratioP2
18383;SDS011;9318;48.644;9.456;2022-12-29T00:00:06;3.83;;;2.33;;
18383;SDS011;9318;48.644;9.456;2022-12-29T00:02:36;3.00;;;2.40;;
18383;SDS011;9318;48.644;9.456;2022-12-29T00:05:03;3.73;;;2.60;;
18383;SDS011;9318;48.644;9.456;2022-12-29T00:07:33;3.33;;;2.30;;
18383;SDS011;9318;48.644;9.456;2022-12-29T00:10:00;3.00;;;2.43;;
18383;SDS011;9318;48.644;9.456;2022-12-29T00:12:27;3.53;;;2.40;;
18383;SDS011;9318;48.644;9.456;2022-12-29T00:15:15;3.83;;;2.50;;
18383;SDS011;9318;48.644;9.456;2022-12-29T00:18:03;2.63;;;2.23;;
18383;SDS011;9318;48.644;9.456;2022-12-29T00:20:33;2.93;;;2.60;;
18383;SDS011;9318;48.644;9.456;2022-12-29T00:23:20;3.40;;;2.50;;
18383;SDS011;9318;48.644;9.456;2022-12-29T00:26:13;3.63;;;2.37;;
18383;SDS011;9318;48.644;9.456;2022-12-29T00:29:00;3.10;;;2.30;;
18383;SDS011;9318;48.644;9.456;2022-12-29T00:31:44;3.27;;;2.50;;
18383;SDS011;9318;48.644;9.456;2022-12-29T00:34:29;4.80;;;2.30;;
18383;SDS011;9318;48.644;9.456;2022-12-29T00:37:13;2.97;;;2.10;;
18383;SDS011;9318;48.644;9.456;2022-12-29T00:39:41;6.20;;;2.20;;
18383;SDS011;9318;48.644;9.456;2022-12-29T00:42:26;3.13;;;2.30;;
18383;SDS011;9318;48.644;9.456;2022-12-29T00:45:10;2.77;;;2.10;;
18383;SDS011;9318;48.644;9.456;2022-12-29T00:47:38;3.43;;;2.53;;
18383;SDS011;9318;48.644;9.456;2022-12-29T00:50:05;3.50;;;2.30;;
18383;SDS011;9318;48.644;9.456;2022-12-29T00:52:32;4.80;;;2.30;;
18383;SDS011;9318;48.644;9.456;2022-12-29T00:55:00;3.37;;;2.20;;
18383;SDS011;9318;48.644;9.456;2022-12-29T00:57:27;4.30;;;2.50;;
18383;SDS011;9318;48.644;9.456;2022-12-29T00:59:55;4.30;;;2.50;;
18383;SDS011;9318;48.644;9.456;2022-12-29T01:02:22;5.90;;;2.43;;
18383;SDS011;9318;48.644;9.456;2022-12-29T01:04:50;4.03;;;2.40;;
18383;SDS011;9318;48.644;9.456;2022-12-29T01:07:17;4.50;;;2.60;;
18383;SDS011;9318;48.644;9.456;2022-12-29T01:09:44;3.37;;;2.40;;
18383;SDS011;9318;48.644;9.456;2022-12-29T01:12:31;3.10;;;2.20;;
18383;SDS011;9318;48.644;9.456;2022-12-29T01:15:11;4.17;;;2.50;;
18383;SDS011;9318;48.644;9.456;2022-12-29T01:17:39;5.10;;;2.37;;
18383;SDS011;9318;48.644;9.456;2022-12-29T01:20:07;3.03;;;2.20;;
18383;SDS011;9318;48.644;9.456;2022-12-29T01:22:35;3.77;;;2.30;;
18383;SDS011;9318;48.644;9.456;2022-12-29T01:25:03;3.10;;;2.40;;
18383;SDS011;9318;48.644;9.456;2022-12-29T01:27:32;4.90;;;2.40;;
18383;SDS011;9318;48.644;9.456;2022-12-29T01:29:59;3.70;;;2.13;;
18383;SDS011;9318;48.644;9.456;2022-12-29T01:32:26;3.30;;;2.33;;
18383;SDS011;9318;48.644;9.456;2022-12-29T01:34:53;6.70;;;2.57;;
18383;SDS011;9318;48.644;9.456;2022-12-29T01:37:21;2.77;;;2.40;;
18383;SDS011;9318;48.644;9.456;2022-12-29T01:39:48;5.00;;;2.50;;
18383;SDS011;9318;48.644;9.456;2022-12-29T01:42:16;4.60;;;2.70;;
18383;SDS011;9318;48.644;9.456;2022-12-29T01:44:50;4.57;;;2.87;;
18383;SDS011;9318;48.644;9.456;2022-12-29T01:47:26;2.67;;;2.47;;
18383;SDS011;9318;48.644;9.456;2022-12-29T01:49:58;4.00;;;2.70;;
18383;SDS011;9318;48.644;9.456;2022-12-29T01:52:29;6.00;;;2.77;;
18383;SDS011;9318;48.644;9.456;2022-12-29T01:54:58;3.77;;;2.60;;
18383;SDS011;9318;48.644;9.456;2022-12-29T01:57:29;5.30;;;2.87;;
18383;SDS011;9318;48.644;9.456;2022-12-29T02:00:03;5.40;;;3.10;;
18383;SDS011;9318;48.644;9.456;2022-12-29T02:02:34;5.53;;;3.00;;
18383;SDS011;9318;48.644;9.456;2022-12-29T02:05:03;5.87;;;3.23;;
18383;SDS011;9318;48.644;9.456;2022-12-29T02:07:34;5.17;;;3.20;;
18383;SDS011;9318;48.644;9.456;2022-12-29T02:10:02;5.67;;;3.60;;
18383;SDS011;9318;48.644;9.456;2022-12-29T02:12:29;8.33;;;3.70;;
18383;SDS011;9318;48.644;9.456;2022-12-29T02:14:57;7.03;;;3.87;;
18383;SDS011;9318;48.644;9.456;2022-12-29T02:17:34;8.60;;;4.43;;
18383;SDS011;9318;48.644;9.456;2022-12-29T02:20:19;8.57;;;4.90;;
18383;SDS011;9318;48.644;9.456;2022-12-29T02:23:36;7.43;;;4.20;;
18383;SDS011;9318;48.644;9.456;2022-12-29T02:26:51;11.70;;;4.77;;
18383;SDS011;9318;48.644;9.456;2022-12-29T02:29:44;7.93;;;4.03;;
18383;SDS011;9318;48.644;9.456;2022-12-29T02:32:33;9.97;;;4.33;;
18383;SDS011;9318;48.644;9.456;2022-12-29T02:35:06;8.37;;;4.33;;
18383;SDS011;9318;48.644;9.456;2022-12-29T02:37:41;7.87;;;4.00;;
18383;SDS011;9318;48.644;9.456;2022-12-29T02:40:16;8.23;;;3.60;;
18383;SDS011;9318;48.644;9.456;2022-12-29T02:42:50;10.10;;;4.23;;
18383;SDS011;9318;48.644;9.456;2022-12-29T02:45:25;9.50;;;3.43;;
18383;SDS011;9318;48.644;9.456;2022-12-29T02:48:01;6.23;;;3.60;;
18383;SDS011;9318;48.644;9.456;2022-12-29T02:50:38;5.23;;;3.00;;
18383;SDS011;9318;48.644;9.456;2022-12-29T02:53:11;3.53;;;2.10;;
18383;SDS011;9318;48.644;9.456;2022-12-29T02:55:47;3.53;;;2.40;;
18383;SDS011;9318;48.644;9.456;2022-12-29T02:58:16;3.73;;;2.40;;
18383;SDS011;9318;48.644;9.456;2022-12-29T03:00:53;5.47;;;2.63;;
18383;SDS011;9318;48.644;9.456;2022-12-29T03:03:32;5.47;;;2.40;;
18383;SDS011;9318;48.644;9.456;2022-12-29T03:06:12;6.03;;;2.23;;
18383;SDS011;9318;48.644;9.456;2022-12-29T03:08:53;2.47;;;1.93;;
18383;SDS011;9318;48.644;9.456;2022-12-29T03:11:26;4.90;;;2.00;;
18383;SDS011;9318;48.644;9.456;2022-12-29T03:14:17;3.90;;;2.07;;
18383;SDS011;9318;48.644;9.456;2022-12-29T03:17:13;2.37;;;2.10;;
18383;SDS011;9318;48.644;9.456;2022-12-29T03:19:48;3.43;;;2.20;;
18383;SDS011;9318;48.644;9.456;2022-12-29T03:22:21;3.77;;;2.13;;
18383;SDS011;9318;48.644;9.456;2022-12-29T03:24:58;3.60;;;2.23;;
18383;SDS011;9318;48.644;9.456;2022-12-29T03:27:31;4.17;;;2.30;;
18383;SDS011;9318;48.644;9.456;2022-12-29T03:30:03;2.87;;;2.07;;
18383;SDS011;9318;48.644;9.456;2022-12-29T03:32:35;3.40;;;2.00;;
18383;SDS011;9318;48.644;9.456;2022-12-29T03:35:06;2.50;;;2.10;;
18383;SDS011;9318;48.644;9.456;2022-12-29T03:40:45;6.23;;;2.30;;
18383;SDS011;9318;48.644;9.456;2022-12-29T03:43:15;4.53;;;2.00;;
18383;SDS011;9318;48.644;9.456;2022-12-29T03:45:44;3.20;;;2.20;;
18383;SDS011;9318;48.644;9.456;2022-12-29T03:48:11;2.10;;;1.90;;
18383;SDS011;9318;48.644;9.456;2022-12-29T03:50:39;3.20;;;2.00;;
18383;SDS011;9318;48.644;9.456;2022-12-29T03:53:06;1.93;;;1.70;;
18383;SDS011;9318;48.644;9.456;2022-12-29T03:55:34;2.90;;;2.00;;
18383;SDS011;9318;48.644;9.456;2022-12-29T03:58:01;6.47;;;2.10;;
18383;SDS011;9318;48.644;9.456;2022-12-29T04:00:28;2.83;;;2.00;;
18383;SDS011;9318;48.644;9.456;2022-12-29T04:02:55;5.40;;;2.10;;
18383;SDS011;9318;48.644;9.456;2022-12-29T04:05:23;2.10;;;1.90;;
18383;SDS011;9318;48.644;9.456;2022-12-29T04:07:51;3.80;;;2.03;;
18383;SDS011;9318;48.644;9.456;2022-12-29T04:10:18;5.70;;;2.10;;
18383;SDS011;9318;48.644;9.456;2022-12-29T04:12:46;5.90;;;1.90;;
18383;SDS011;9318;48.644;9.456;2022-12-29T04:15:13;2.00;;;1.90;;
18383;SDS011;9318;48.644;9.456;2022-12-29T04:17:40;4.83;;;2.90;;
18383;SDS011;9318;48.644;9.456;2022-12-29T04:20:07;4.47;;;2.03;;
18383;SDS011;9318;48.644;9.456;2022-12-29T04:22:58;2.77;;;2.00;;
18383;SDS011;9318;48.644;9.456;2022-12-29T04:25:26;3.40;;;1.90;;
18383;SDS011;9318;48.644;9.456;2022-12-29T04:27:53;3.30;;;1.90;;
18383;SDS011;9318;48.644;9.456;2022-12-29T04:30:20;4.53;;;2.40;;
18383;SDS011;9318;48.644;9.456;2022-12-29T04:32:47;2.10;;;1.90;;
18383;SDS011;9318;48.644;9.456;2022-12-29T04:35:14;3.50;;;2.23;;
18383;SDS011;9318;48.644;9.456;2022-12-29T04:37:42;2.47;;;1.70;;
18383;SDS011;9318;48.644;9.456;2022-12-29T04:40:11;2.17;;;1.97;;
18383;SDS011;9318;48.644;9.456;2022-12-29T04:42:38;2.50;;;2.10;;
18383;SDS011;9318;48.644;9.456;2022-12-29T04:45:06;3.23;;;2.20;;
18383;SDS011;9318;48.644;9.456;2022-12-29T04:47:34;3.73;;;2.00;;
18383;SDS011;9318;48.644;9.456;2022-12-29T04:50:01;4.03;;;2.00;;
18383;SDS011;9318;48.644;9.456;2022-12-29T04:52:29;3.43;;;2.00;;
18383;SDS011;9318;48.644;9.456;2022-12-29T04:54:56;3.97;;;2.17;;
18383;SDS011;9318;48.644;9.456;2022-12-29T04:57:24;4.17;;;2.33;;
18383;SDS011;9318;48.644;9.456;2022-12-29T04:59:52;3.13;;;2.17;;
18383;SDS011;9318;48.644;9.456;2022-12-29T05:02:19;4.37;;;2.20;;
18383;SDS011;9318;48.644;9.456;2022-12-29T05:04:46;3.50;;;2.10;;
18383;SDS011;9318;48.644;9.456;2022-12-29T05:07:13;4.60;;;2.20;;
18383;SDS011;9318;48.644;9.456;2022-12-29T05:09:40;2.37;;;1.80;;
18383;SDS011;9318;48.644;9.456;2022-12-29T05:12:07;7.40;;;2.10;;
18383;SDS011;9318;48.644;9.456;2022-12-29T05:14:36;5.40;;;2.30;;
18383;SDS011;9318;48.644;9.456;2022-12-29T05:17:03;2.80;;;2.30;;
18383;SDS011;9318;48.644;9.456;2022-12-29T05:19:30;2.20;;;1.90;;
18383;SDS011;9318;48.644;9.456;2022-12-29T05:21:58;2.63;;;2.23;;
18383;SDS011;9318;48.644;9.456;2022-12-29T05:24:25;3.73;;;1.97;;
18383;SDS011;9318;48.644;9.456;2022-12-29T05:26:53;2.97;;;2.00;;
18383;SDS011;9318;48.644;9.456;2022-12-29T05:29:20;3.23;;;2.20;;
18383;SDS011;9318;48.644;9.456;2022-12-29T05:31:48;3.83;;;2.30;;
18383;SDS011;9318;48.644;9.456;2022-12-29T05:34:15;4.30;;;2.10;;
18383;SDS011;9318;48.644;9.456;2022-12-29T05:36:43;5.07;;;2.30;;
18383;SDS011;9318;48.644;9.456;2022-12-29T05:39:10;3.63;;;2.30;;
18383;SDS011;9318;48.644;9.456;2022-12-29T05:41:37;8.13;;;2.60;;
18383;SDS011;9318;48.644;9.456;2022-12-29T05:44:05;2.37;;;2.10;;
18383;SDS011;9318;48.644;9.456;2022-12-29T05:46:32;2.43;;;2.23;;
18383;SDS011;9318;48.644;9.456;2022-12-29T05:49:01;4.70;;;2.00;;
18383;SDS011;9318;48.644;9.456;2022-12-29T05:51:28;7.53;;;2.60;;
18383;SDS011;9318;48.644;9.456;2022-12-29T05:53:55;5.30;;;2.33;;
18383;SDS011;9318;48.644;9.456;2022-12-29T05:56:22;4.10;;;2.47;;
18383;SDS011;9318;48.644;9.456;2022-12-29T05:58:49;4.80;;;2.30;;
18383;SDS011;9318;48.644;9.456;2022-12-29T06:01:17;4.60;;;2.40;;
18383;SDS011;9318;48.644;9.456;2022-12-29T06:03:44;3.40;;;2.23;;
18383;SDS011;9318;48.644;9.456;2022-12-29T06:06:12;4.77;;;2.30;;
18383;SDS011;9318;48.644;9.456;2022-12-29T06:08:39;3.10;;;2.20;;
18383;SDS011;9318;48.644;9.456;2022-12-29T06:11:06;3.07;;;2.30;;
18383;SDS011;9318;48.644;9.456;2022-12-29T06:13:33;3.77;;;2.20;;
18383;SDS011;9318;48.644;9.456;2022-12-29T06:16:00;2.90;;;2.37;;
18383;SDS011;9318;48.644;9.456;2022-12-29T06:18:28;6.07;;;3.03;;
18383;SDS011;9318;48.644;9.456;2022-12-29T06:20:58;4.33;;;2.50;;
18383;SDS011;9318;48.644;9.456;2022-12-29T06:23:27;10.33;;;4.53;;
18383;SDS011;9318;48.644;9.456;2022-12-29T06:25:55;3.10;;;2.53;;
18383;SDS011;9318;48.644;9.456;2022-12-29T06:28:22;3.83;;;2.33;;
18383;SDS011;9318;48.644;9.456;2022-12-29T06:30:50;4.23;;;2.37;;
18383;SDS011;9318;48.644;9.456;2022-12-29T06:33:17;3.10;;;2.40;;
18383;SDS011;9318;48.644;9.456;2022-12-29T06:35:44;4.57;;;2.60;;
18383;SDS011;9318;48.644;9.456;2022-12-29T06:38:12;3.63;;;2.47;;
18383;SDS011;9318;48.644;9.456;2022-12-29T06:40:41;2.97;;;2.30;;
18383;SDS011;9318;48.644;9.456;2022-12-29T06:43:10;4.00;;;2.63;;
18383;SDS011;9318;48.644;9.456;2022-12-29T06:45:37;4.57;;;2.73;;
18383;SDS011;9318;48.644;9.456;2022-12-29T06:48:06;5.13;;;2.20;;
18383;SDS011;9318;48.644;9.456;2022-12-29T06:50:33;5.93;;;2.90;;
18383;SDS011;9318;48.644;9.456;2022-12-29T06:53:01;4.00;;;2.50;;
18383;SDS011;9318;48.644;9.456;2022-12-29T06:55:28;5.60;;;2.50;;
18383;SDS011;9318;48.644;9.456;2022-12-29T06:57:57;3.50;;;2.20;;
18383;SDS011;9318;48.644;9.456;2022-12-29T07:00:26;5.50;;;2.50;;
18383;SDS011;9318;48.644;9.456;2022-12-29T07:02:54;3.60;;;2.27;;
18383;SDS011;9318;48.644;9.456;2022-12-29T07:05:23;5.20;;;2.33;;
18383;SDS011;9318;48.644;9.456;2022-12-29T07:07:52;6.67;;;2.30;;
18383;SDS011;9318;48.644;9.456;2022-12-29T07:10:19;4.90;;;2.47;;
18383;SDS011;9318;48.644;9.456;2022-12-29T07:12:47;5.30;;;2.30;;
18383;SDS011;9318;48.644;9.456;2022-12-29T07:15:16;3.67;;;2.40;;
18383;SDS011;9318;48.644;9.456;2022-12-29T07:17:43;5.57;;;2.70;;
18383;SDS011;9318;48.644;9.456;2022-12-29T07:20:10;5.70;;;2.37;;
18383;SDS011;9318;48.644;9.456;2022-12-29T07:22:37;5.17;;;2.40;;
18383;SDS011;9318;48.644;9.456;2022-12-29T07:25:05;2.73;;;2.20;;
18383;SDS011;9318;48.644;9.456;2022-12-29T07:27:32;3.30;;;2.60;;
18383;SDS011;9318;48.644;9.456;2022-12-29T07:30:00;3.40;;;2.30;;
18383;SDS011;9318;48.644;9.456;2022-12-29T07:32:29;4.90;;;2.40;;
18383;SDS011;9318;48.644;9.456;2022-12-29T07:34:59;7.63;;;2.40;;
18383;SDS011;9318;48.644;9.456;2022-12-29T07:37:26;2.77;;;2.30;;
18383;SDS011;9318;48.644;9.456;2022-12-29T07:39:53;4.57;;;2.50;;
18383;SDS011;9318;48.644;9.456;2022-12-29T07:42:20;4.07;;;2.30;;
18383;SDS011;9318;48.644;9.456;2022-12-29T07:44:47;3.57;;;2.47;;
18383;SDS011;9318;48.644;9.456;2022-12-29T07:47:14;5.00;;;2.60;;
18383;SDS011;9318;48.644;9.456;2022-12-29T07:49:43;3.93;;;2.60;;
18383;SDS011;9318;48.644;9.456;2022-12-29T07:52:10;4.43;;;2.67;;
18383;SDS011;9318;48.644;9.456;2022-12-29T07:54:37;5.63;;;2.50;;
18383;SDS011;9318;48.644;9.456;2022-12-29T07:57:06;3.87;;;2.40;;
18383;SDS011;9318;48.644;9.456;2022-12-29T07:59:33;4.33;;;2.43;;
18383;SDS011;9318;48.644;9.456;2022-12-29T08:02:00;4.33;;;2.47;;
18383;SDS011;9318;48.644;9.456;2022-12-29T08:04:28;5.83;;;2.70;;
18383;SDS011;9318;48.644;9.456;2022-12-29T08:06:56;4.70;;;2.70;;
18383;SDS011;9318;48.644;9.456;2022-12-29T08:09:23;8.77;;;3.73;;
18383;SDS011;9318;48.644;9.456;2022-12-29T08:11:50;7.30;;;2.80;;
18383;SDS011;9318;48.644;9.456;2022-12-29T08:14:17;4.13;;;2.67;;
18383;SDS011;9318;48.644;9.456;2022-12-29T08:16:45;5.37;;;2.70;;
18383;SDS011;9318;48.644;9.456;2022-12-29T08:19:13;6.07;;;3.00;;
18383;SDS011;9318;48.644;9.456;2022-12-29T08:21:40;4.33;;;2.67;;
18383;SDS011;9318;48.644;9.456;2022-12-29T08:24:09;4.97;;;2.70;;
18383;SDS011;9318;48.644;9.456;2022-12-29T08:26:36;5.23;;;3.10;;
18383;SDS011;9318;48.644;9.456;2022-12-29T08:29:03;6.10;;;2.97;;
18383;SDS011;9318;48.644;9.456;2022-12-29T08:31:30;5.03;;;3.00;;
18383;SDS011;9318;48.644;9.456;2022-12-29T08:33:58;4.07;;;2.50;;
18383;SDS011;9318;48.644;9.456;2022-12-29T08:36:28;5.33;;;2.90;;
18383;SDS011;9318;48.644;9.456;2022-12-29T08:38:55;8.20;;;2.63;;
18383;SDS011;9318;48.644;9.456;2022-12-29T08:41:24;8.80;;;3.50;;
18383;SDS011;9318;48.644;9.456;2022-12-29T08:43:51;4.97;;;2.70;;
18383;SDS011;9318;48.644;9.456;2022-12-29T08:46:18;3.87;;;2.43;;
18383;SDS011;9318;48.644;9.456;2022-12-29T08:48:45;5.87;;;2.77;;
18383;SDS011;9318;48.644;9.456;2022-12-29T08:51:13;6.53;;;3.40;;
18383;SDS011;9318;48.644;9.456;2022-12-29T08:53:40;5.40;;;2.90;;
18383;SDS011;9318;48.644;9.456;2022-12-29T08:56:08;6.03;;;2.80;;
18383;SDS011;9318;48.644;9.456;2022-12-29T08:58:37;5.00;;;2.50;;
18383;SDS011;9318;48.644;9.456;2022-12-29T09:01:05;4.13;;;2.60;;
18383;SDS011;9318;48.644;9.456;2022-12-29T09:03:33;6.27;;;2.70;;
18383;SDS011;9318;48.644;9.456;2022-12-29T09:06:00;5.60;;;2.70;;
18383;SDS011;9318;48.644;9.456;2022-12-29T09:08:27;4.90;;;2.50;;
18383;SDS011;9318;48.644;9.456;2022-12-29T09:10:54;6.07;;;2.60;;
18383;SDS011;9318;48.644;9.456;2022-12-29T09:13:21;4.77;;;2.90;;
18383;SDS011;9318;48.644;9.456;2022-12-29T09:15:55;4.70;;;2.60;;
18383;SDS011;9318;48.644;9.456;2022-12-29T09:18:24;4.80;;;2.70;;
18383;SDS011;9318;48.644;9.456;2022-12-29T09:20:55;5.80;;;2.77;;
18383;SDS011;9318;48.644;9.456;2022-12-29T09:23:23;4.33;;;2.33;;
18383;SDS011;9318;48.644;9.456;2022-12-29T09:25:51;6.13;;;2.40;;
18383;SDS011;9318;48.644;9.456;2022-12-29T09:28:18;2.87;;;2.00;;
18383;SDS011;9318;48.644;9.456;2022-12-29T09:30:45;3.70;;;2.20;;
18383;SDS011;9318;48.644;9.456;2022-12-29T09:33:14;3.73;;;2.13;;
18383;SDS011;9318;48.644;9.456;2022-12-29T09:35:42;3.30;;;2.10;;
18383;SDS011;9318;48.644;9.456;2022-12-29T09:38:10;3.10;;;2.10;;
18383;SDS011;9318;48.644;9.456;2022-12-29T09:40:38;7.60;;;2.37;;
18383;SDS011;9318;48.644;9.456;2022-12-29T09:43:16;5.07;;;2.23;;
18383;SDS011;9318;48.644;9.456;2022-12-29T09:45:53;2.53;;;2.10;;
18383;SDS011;9318;48.644;9.456;2022-12-29T09:48:29;3.93;;;2.20;;
18383;SDS011;9318;48.644;9.456;2022-12-29T09:51:02;5.03;;;2.40;;
18383;SDS011;9318;48.644;9.456;2022-12-29T09:53:35;5.23;;;2.17;;
18383;SDS011;9318;48.644;9.456;2022-12-29T09:56:05;4.20;;;2.30;;
18383;SDS011;9318;48.644;9.456;2022-12-29T09:58:41;5.07;;;2.10;;
18383;SDS011;9318;48.644;9.456;2022-12-29T10:01:14;3.57;;;2.03;;
18383;SDS011;9318;48.644;9.456;2022-12-29T10:03:50;7.47;;;2.40;;
18383;SDS011;9318;48.644;9.456;2022-12-29T10:06:19;9.50;;;4.53;;
18383;SDS011;9318;48.644;9.456;2022-12-29T10:08:55;3.40;;;2.47;;
18383;SDS011;9318;48.644;9.456;2022-12-29T10:11:31;2.93;;;2.40;;
18383;SDS011;9318;48.644;9.456;2022-12-29T10:14:16;3.67;;;2.03;;
18383;SDS011;9318;48.644;9.456;2022-12-29T10:16:54;4.60;;;2.17;;
18383;SDS011;9318;48.644;9.456;2022-12-29T10:19:32;3.97;;;2.37;;
18383;SDS011;9318;48.644;9.456;2022-12-29T10:22:21;6.53;;;2.97;;
18383;SDS011;9318;48.644;9.456;2022-12-29T10:24:58;3.57;;;2.10;;
18383;SDS011;9318;48.644;9.456;2022-12-29T10:27:30;2.47;;;2.10;;
18383;SDS011;9318;48.644;9.456;2022-12-29T10:29:59;2.97;;;2.30;;
18383;SDS011;9318;48.644;9.456;2022-12-29T10:32:29;4.03;;;2.57;;
18383;SDS011;9318;48.644;9.456;2022-12-29T10:35:03;4.23;;;2.20;;
18383;SDS011;9318;48.644;9.456;2022-12-29T10:37:38;2.80;;;2.37;;
18383;SDS011;9318;48.644;9.456;2022-12-29T10:40:14;3.77;;;2.70;;
18383;SDS011;9318;48.644;9.456;2022-12-29T10:42:47;4.23;;;2.70;;
18383;SDS011;9318;48.644;9.456;2022-12-29T10:45:18;3.80;;;2.43;;
18383;SDS011;9318;48.644;9.456;2022-12-29T10:47:50;3.77;;;2.57;;
18383;SDS011;9318;48.644;9.456;2022-12-29T10:50:24;4.40;;;2.60;;
18383;SDS011;9318;48.644;9.456;2022-12-29T10:52:54;4.33;;;2.60;;
18383;SDS011;9318;48.644;9.456;2022-12-29T10:55:24;4.17;;;2.50;;
18383;SDS011;9318;48.644;9.456;2022-12-29T10:57:56;3.53;;;2.40;;
18383;SDS011;9318;48.644;9.456;2022-12-29T11:00:30;2.47;;;2.27;;
18383;SDS011;9318;48.644;9.456;2022-12-29T11:06:08;3.67;;;2.20;;
18383;SDS011;9318;48.644;9.456;2022-12-29T11:08:48;4.83;;;2.30;;
18383;SDS011;9318;48.644;9.456;2022-12-29T11:11:22;3.13;;;2.00;;
18383;SDS011;9318;48.644;9.456;2022-12-29T11:13:56;3.53;;;2.10;;
18383;SDS011;9318;48.644;9.456;2022-12-29T11:16:28;5.73;;;2.10;;
18383;SDS011;9318;48.644;9.456;2022-12-29T11:19:00;2.77;;;2.10;;
18383;SDS011;9318;48.644;9.456;2022-12-29T11:21:30;4.17;;;2.30;;
18383;SDS011;9318;48.644;9.456;2022-12-29T11:24:00;5.33;;;2.00;;
18383;SDS011;9318;48.644;9.456;2022-12-29T11:26:28;3.30;;;2.00;;
18383;SDS011;9318;48.644;9.456;2022-12-29T11:29:14;3.67;;;2.07;;
18383;SDS011;9318;48.644;9.456;2022-12-29T11:31:48;5.20;;;2.10;;
18383;SDS011;9318;48.644;9.456;2022-12-29T11:34:19;2.80;;;2.00;;
18383;SDS011;9318;48.644;9.456;2022-12-29T11:36:50;4.70;;;2.17;;
18383;SDS011;9318;48.644;9.456;2022-12-29T11:39:23;4.93;;;2.17;;
18383;SDS011;9318;48.644;9.456;2022-12-29T11:41:59;4.37;;;2.30;;
18383;SDS011;9318;48.644;9.456;2022-12-29T11:44:27;3.30;;;2.20;;
18383;SDS011;9318;48.644;9.456;2022-12-29T11:47:02;4.20;;;2.63;;
18383;SDS011;9318;48.644;9.456;2022-12-29T11:49:31;8.07;;;2.50;;
18383;SDS011;9318;48.644;9.456;2022-12-29T11:52:00;4.00;;;2.10;;
18383;SDS011;9318;48.644;9.456;2022-12-29T11:54:28;2.57;;;2.13;;
18383;SDS011;9318;48.644;9.456;2022-12-29T11:56:58;4.03;;;2.10;;
18383;SDS011;9318;48.644;9.456;2022-12-29T11:59:39;2.43;;;2.23;;
18383;SDS011;9318;48.644;9.456;2022-12-29T12:02:15;2.30;;;2.10;;
18383;SDS011;9318;48.644;9.456;2022-12-29T12:05:22;3.17;;;1.93;;
18383;SDS011;9318;48.644;9.456;2022-12-29T12:08:07;2.50;;;2.00;;
18383;SDS011;9318;48.644;9.456;2022-12-29T12:10:42;3.83;;;2.20;;
18383;SDS011;9318;48.644;9.456;2022-12-29T12:13:17;4.23;;;2.57;;
18383;SDS011;9318;48.644;9.456;2022-12-29T12:15:52;3.37;;;2.20;;
18383;SDS011;9318;48.644;9.456;2022-12-29T12:18:28;5.17;;;2.50;;
18383;SDS011;9318;48.644;9.456;2022-12-29T12:21:04;2.83;;;2.00;;
18383;SDS011;9318;48.644;9.456;2022-12-29T12:23:38;3.07;;;1.97;;
18383;SDS011;9318;48.644;9.456;2022-12-29T12:26:15;6.70;;;3.07;;
18383;SDS011;9318;48.644;9.456;2022-12-29T12:28:48;6.10;;;2.70;;
18383;SDS011;9318;48.644;9.456;2022-12-29T12:31:22;3.53;;;2.40;;
18383;SDS011;9318;48.644;9.456;2022-12-29T12:34:02;3.40;;;2.50;;
18383;SDS011;9318;48.644;9.456;2022-12-29T12:39:56;2.73;;;2.13;;
18383;SDS011;9318;48.644;9.456;2022-12-29T12:42:39;2.77;;;2.27;;
18383;SDS011;9318;48.644;9.456;2022-12-29T12:45:27;2.97;;;2.03;;
18383;SDS011;9318;48.644;9.456;2022-12-29T12:48:11;4.20;;;2.10;;
18383;SDS011;9318;48.644;9.456;2022-12-29T12:50:54;5.43;;;2.20;;
18383;SDS011;9318;48.644;9.456;2022-12-29T12:53:36;4.97;;;2.50;;
18383;SDS011;9318;48.644;9.456;2022-12-29T12:56:22;3.30;;;2.20;;
18383;SDS011;9318;48.644;9.456;2022-12-29T12:59:12;4.30;;;2.10;;
18383;SDS011;9318;48.644;9.456;2022-12-29T13:01:51;2.10;;;1.73;;
18383;SDS011;9318;48.644;9.456;2022-12-29T13:04:30;2.53;;;2.00;;
18383;SDS011;9318;48.644;9.456;2022-12-29T13:07:10;2.93;;;2.10;;
18383;SDS011;9318;48.644;9.456;2022-12-29T13:09:48;6.60;;;2.33;;
18383;SDS011;9318;48.644;9.456;2022-12-29T13:12:27;4.50;;;2.50;;
18383;SDS011;9318;48.644;9.456;2022-12-29T13:15:04;3.07;;;2.17;;
18383;SDS011;9318;48.644;9.456;2022-12-29T13:17:40;4.60;;;2.10;;
18383;SDS011;9318;48.644;9.456;2022-12-29T13:20:17;4.37;;;2.07;;
18383;SDS011;9318;48.644;9.456;2022-12-29T13:22:53;3.17;;;2.50;;
18383;SDS011;9318;48.644;9.456;2022-12-29T13:25:27;3.67;;;2.47;;
18383;SDS011;9318;48.644;9.456;2022-12-29T13:28:01;3.50;;;2.60;;
18383;SDS011;9318;48.644;9.456;2022-12-29T13:30:37;4.40;;;2.30;;
18383;SDS011;9318;48.644;9.456;2022-12-29T13:33:11;4.23;;;2.23;;
18383;SDS011;9318;48.644;9.456;2022-12-29T13:35:51;4.07;;;2.87;;
18383;SDS011;9318;48.644;9.456;2022-12-29T13:38:24;7.23;;;3.50;;
18383;SDS011;9318;48.644;9.456;2022-12-29T13:40:58;3.63;;;2.90;;
18383;SDS011;9318;48.644;9.456;2022-12-29T13:43:30;4.57;;;3.30;;
18383;SDS011;9318;48.644;9.456;2022-12-29T13:46:01;3.97;;;2.80;;
18383;SDS011;9318;48.644;9.456;2022-12-29T13:48:37;5.93;;;3.00;;
18383;SDS011;9318;48.644;9.456;2022-12-29T13:51:09;4.90;;;2.40;;
18383;SDS011;9318;48.644;9.456;2022-12-29T13:53:41;3.23;;;2.17;;
18383;SDS011;9318;48.644;9.456;2022-12-29T13:56:21;5.73;;;2.60;;
18383;SDS011;9318;48.644;9.456;2022-12-29T13:58:55;4.50;;;2.53;;
18383;SDS011;9318;48.644;9.456;2022-12-29T14:01:28;2.43;;;2.20;;
18383;SDS011;9318;48.644;9.456;2022-12-29T14:03:58;4.27;;;2.23;;
18383;SDS011;9318;48.644;9.456;2022-12-29T14:06:28;3.17;;;2.30;;
18383;SDS011;9318;48.644;9.456;2022-12-29T14:08:58;5.63;;;2.40;;
18383;SDS011;9318;48.644;9.456;2022-12-29T14:11:30;3.23;;;2.10;;
18383;SDS011;9318;48.644;9.456;2022-12-29T14:14:09;3.40;;;2.30;;
18383;SDS011;9318;48.644;9.456;2022-12-29T14:16:38;5.80;;;2.70;;
18383;SDS011;9318;48.644;9.456;2022-12-29T14:19:11;3.80;;;2.47;;
18383;SDS011;9318;48.644;9.456;2022-12-29T14:21:49;4.33;;;2.37;;
18383;SDS011;9318;48.644;9.456;2022-12-29T14:33:23;3.10;;;2.20;;
18383;SDS011;9318;48.644;9.456;2022-12-29T14:35:52;4.53;;;2.40;;
18383;SDS011;9318;48.644;9.456;2022-12-29T14:38:29;4.40;;;2.30;;
18383;SDS011;9318;48.644;9.456;2022-12-29T14:43:53;3.70;;;2.50;;
18383;SDS011;9318;48.644;9.456;2022-12-29T14:46:25;6.53;;;3.17;;
18383;SDS011;9318;48.644;9.456;2022-12-29T14:49:08;4.60;;;3.33;;
18383;SDS011;9318;48.644;9.456;2022-12-29T14:51:43;2.93;;;2.40;;
18383;SDS011;9318;48.644;9.456;2022-12-29T14:57:13;3.77;;;2.43;;
18383;SDS011;9318;48.644;9.456;2022-12-29T15:00:15;5.30;;;2.40;;
18383;SDS011;9318;48.644;9.456;2022-12-29T15:02:47;3.37;;;2.30;;
18383;SDS011;9318;48.644;9.456;2022-12-29T15:05:30;3.60;;;2.27;;
18383;SDS011;9318;48.644;9.456;2022-12-29T15:08:01;4.00;;;3.00;;
18383;SDS011;9318;48.644;9.456;2022-12-29T15:10:35;7.50;;;3.10;;
18383;SDS011;9318;48.644;9.456;2022-12-29T15:13:13;4.53;;;2.60;;
18383;SDS011;9318;48.644;9.456;2022-12-29T15:15:43;3.10;;;2.50;;
18383;SDS011;9318;48.644;9.456;2022-12-29T15:18:20;4.00;;;2.50;;
18383;SDS011;9318;48.644;9.456;2022-12-29T15:20:50;2.93;;;2.20;;
18383;SDS011;9318;48.644;9.456;2022-12-29T15:23:20;4.97;;;2.90;;
18383;SDS011;9318;48.644;9.456;2022-12-29T15:25:48;3.90;;;2.50;;
18383;SDS011;9318;48.644;9.456;2022-12-29T15:28:20;3.03;;;2.20;;
18383;SDS011;9318;48.644;9.456;2022-12-29T15:30:54;4.80;;;2.77;;
18383;SDS011;9318;48.644;9.456;2022-12-29T15:33:26;4.70;;;2.77;;
18383;SDS011;9318;48.644;9.456;2022-12-29T15:35:54;4.93;;;2.90;;
18383;SDS011;9318;48.644;9.456;2022-12-29T15:38:23;4.10;;;2.60;;
18383;SDS011;9318;48.644;9.456;2022-12-29T15:40:52;4.67;;;2.90;;
18383;SDS011;9318;48.644;9.456;2022-12-29T15:43:24;4.63;;;2.40;;
18383;SDS011;9318;48.644;9.456;2022-12-29T15:45:59;3.77;;;2.70;;
18383;SDS011;9318;48.644;9.456;2022-12-29T15:48:29;6.20;;;3.07;;
18383;SDS011;9318;48.644;9.456;2022-12-29T15:50:57;5.10;;;2.50;;
18383;SDS011;9318;48.644;9.456;2022-12-29T15:53:27;3.87;;;2.60;;